Time;durP1;ratioP1;P1;durP2;ratioP2;P2;SDS_P1;SDS_P2;PMS_P1;PMS_P2;Temp;Humidity;BMP_temperature;BMP_pressure;BME280_temperature;BME280_humidity;BME280_pressure;Samples;Min_cycle;Max_cycle;Signal;HPM_P1;HPM_P2
2022/12/28 00:00:32;;;;;;;23.27;4.78;;;;;;;5.88;100.00;99819.00;4998170;28;20048;-45
2022/12/28 00:06:51;;;;;;;14.77;3.78;;;;;;;5.84;100.00;99814.47;5015778;28;20038;-43
2022/12/28 00:10:04;;;;;;;18.67;3.53;;;;;;;5.82;100.00;99814.03;5031073;28;20115;-42
2022/12/28 00:20:01;;;;;;;22.83;3.33;;;;;;;5.75;100.00;99808.25;5022988;28;20515;-44
2022/12/28 00:22:28;;;;;;;16.42;3.00;;;;;;;5.73;100.00;99811.34;5019900;28;20128;-44
2022/12/28 00:24:55;;;;;;;25.70;5.18;;;;;;;5.72;100.00;99817.97;5030074;28;20049;-43
2022/12/28 00:27:21;;;;;;;50.63;7.28;;;;;;;5.71;100.00;99810.06;5040265;28;20050;-43
2022/12/28 00:29:48;;;;;;;15.13;3.53;;;;;;;5.71;100.00;99805.38;5019571;28;20054;-47
2022/12/28 00:32:15;;;;;;;17.70;3.78;;;;;;;5.70;100.00;99805.69;5028289;28;20427;-43
2022/12/28 00:34:41;;;;;;;12.82;2.88;;;;;;;5.68;100.00;99803.31;5030365;28;20507;-44
2022/12/28 00:37:08;;;;;;;16.83;5.30;;;;;;;5.70;100.00;99808.44;5029716;28;20084;-44
2022/12/28 00:39:44;;;;;;;16.52;3.40;;;;;;;5.69;100.00;99795.88;5030480;28;20053;-44
2022/12/28 00:42:11;;;;;;;18.10;4.22;;;;;;;5.69;100.00;99784.91;5030035;28;20041;-42
2022/12/28 00:44:39;;;;;;;16.08;3.35;;;;;;;5.70;100.00;99770.00;5030890;28;20072;-45
2022/12/28 00:47:06;;;;;;;22.65;5.40;;;;;;;5.68;100.00;99767.59;5029798;28;20041;-43
2022/12/28 00:49:32;;;;;;;15.77;3.60;;;;;;;5.69;100.00;99771.16;5030306;28;20048;-43
2022/12/28 00:51:59;;;;;;;13.77;3.40;;;;;;;5.67;100.00;99771.47;5030122;28;20040;-43
2022/12/28 00:54:38;;;;;;;12.50;3.38;;;;;;;5.65;100.00;99762.78;5030451;28;20046;-42
2022/12/28 00:57:06;;;;;;;32.72;5.20;;;;;;;5.64;100.00;99765.88;5019062;28;20041;-42
2022/12/28 00:59:32;;;;;;;21.48;4.18;;;;;;;5.64;100.00;99760.38;5029355;28;20042;-43
2022/12/28 01:01:59;;;;;;;22.00;4.13;;;;;;;5.62;100.00;99752.47;5033251;28;20049;-44
2022/12/28 01:04:26;;;;;;;20.45;4.30;;;;;;;5.61;100.00;99725.38;5033329;28;20076;-44
2022/12/28 01:06:53;;;;;;;19.30;3.53;;;;;;;5.62;100.00;99718.72;5043806;28;20053;-43
2022/12/28 01:09:19;;;;;;;21.05;3.72;;;;;;;5.62;100.00;99707.72;5051890;28;20041;-43
2022/12/28 01:11:46;;;;;;;11.90;3.50;;;;;;;5.59;100.00;99697.44;5054880;28;20049;-45
2022/12/28 01:14:57;;;;;;;17.25;5.03;;;;;;;5.60;100.00;99701.78;5053616;28;20051;-44
2022/12/28 01:17:24;;;;;;;16.55;3.80;;;;;;;5.59;100.00;99705.69;5054661;28;20037;-43
2022/12/28 01:19:50;;;;;;;23.60;4.35;;;;;;;5.59;100.00;99703.72;5052815;28;20049;-45
2022/12/28 01:26:24;;;;;;;19.17;4.85;;;;;;;5.57;100.00;99691.47;5054209;28;20128;-45
2022/12/28 01:29:10;;;;;;;13.75;3.33;;;;;;;5.54;100.00;99680.03;5052446;28;20513;-45
2022/12/28 01:31:37;;;;;;;15.27;2.90;;;;;;;5.54;100.00;99674.53;5045844;28;20052;-43
2022/12/28 01:34:03;;;;;;;16.95;4.20;;;;;;;5.53;100.00;99694.88;5052977;28;20391;-43
2022/12/28 01:36:54;;;;;;;19.27;5.07;;;;;;;5.52;100.00;99671.34;5051792;28;20128;-42
2022/12/28 01:39:21;;;;;;;18.58;4.57;;;;;;;5.49;100.00;99666.53;5023644;28;20124;-44
2022/12/28 01:41:47;;;;;;;21.50;3.90;;;;;;;5.48;100.00;99645.69;5050769;28;20418;-43
2022/12/28 01:44:15;;;;;;;18.05;4.00;;;;;;;5.47;100.00;99635.06;5041612;28;20056;-43
2022/12/28 01:46:51;;;;;;;21.02;3.50;;;;;;;5.46;100.00;99628.75;5051643;28;20449;-45
2022/12/28 01:49:25;;;;;;;15.27;4.68;;;;;;;5.44;100.00;99628.31;5036409;28;20510;-42
2022/12/28 01:52:31;;;;;;;18.15;3.45;;;;;;;5.43;100.00;99629.44;5036366;28;20053;-42
2022/12/28 01:58:49;;;;;;;15.30;2.67;;;;;;;5.38;100.00;99637.88;5046657;28;20517;-44
2022/12/28 02:05:31;;;;;;;25.92;3.40;;;;;;;5.34;100.00;99612.28;5051450;28;20051;-42
2022/12/28 02:08:10;;;;;;;24.33;3.28;;;;;;;5.33;100.00;99613.41;5049594;28;20059;-42
2022/12/28 02:10:40;;;;;;;15.00;3.42;;;;;;;5.34;100.00;99620.50;5049238;28;20055;-44
2022/12/28 02:13:15;;;;;;;15.57;3.70;;;;;;;5.37;100.00;99627.25;5048348;28;20471;-43
2022/12/28 02:15:42;;;;;;;13.15;3.55;;;;;;;5.37;100.00;99619.81;5047517;28;20051;-44
2022/12/28 02:18:11;;;;;;;14.48;3.38;;;;;;;5.38;100.00;99615.94;5051224;28;20491;-45
2022/12/28 02:25:05;;;;;;;13.02;3.70;;;;;;;5.39;100.00;99603.00;5046287;28;20079;-44
2022/12/28 02:28:07;;;;;;;22.10;3.83;;;;;;;5.39;100.00;99587.34;5042687;28;20049;-42
2022/12/28 02:31:02;;;;;;;10.23;2.63;;;;;;;5.38;100.00;99593.97;5047053;28;20045;-42
2022/12/28 02:33:55;;;;;;;23.15;4.50;;;;;;;5.38;100.00;99593.16;5052447;28;20088;-42
2022/12/28 02:40:06;;;;;;;18.60;3.25;;;;;;;5.37;100.00;99597.88;5046310;28;20116;-46
2022/12/28 02:42:36;;;;;;;10.25;2.97;;;;;;;5.38;100.00;99601.41;5036703;28;20034;-42
2022/12/28 02:51:16;;;;;;;14.98;5.15;;;;;;;5.39;100.00;99592.84;5045801;28;20045;-42
2022/12/28 02:58:22;;;;;;;22.83;3.92;;;;;;;5.36;100.00;99578.97;5047470;28;20032;-43
2022/12/28 03:04:38;;;;;;;17.05;3.30;;;;;;;5.39;100.00;99578.31;5018515;22;20106;-42
2022/12/28 03:14:47;;;;;;;13.32;2.90;;;;;;;5.44;100.00;99545.97;5050848;28;19916;-42
2022/12/28 03:31:05;;;;;;;15.43;3.75;;;;;;;5.49;100.00;99490.03;5052303;28;20051;-43
2022/12/28 03:33:36;;;;;;;16.88;3.45;;;;;;;5.48;100.00;99483.75;5045545;28;20033;-49
2022/12/28 03:36:20;;;;;;;8.80;2.33;;;;;;;5.50;100.00;99481.47;5050503;28;20508;-43
2022/12/28 03:38:53;;;;;;;20.77;3.63;;;;;;;5.52;100.00;99472.88;5051251;28;20059;-42
2022/12/28 03:41:32;;;;;;;18.63;2.78;;;;;;;5.53;100.00;99471.75;5053199;28;20051;-43
2022/12/28 03:44:12;;;;;;;21.52;4.93;;;;;;;5.52;100.00;99465.44;5049561;28;20055;-43
2022/12/28 03:47:06;;;;;;;18.60;3.50;;;;;;;5.52;100.00;99448.19;5047643;28;20587;-44
2022/12/28 03:49:33;;;;;;;14.77;3.17;;;;;;;5.52;100.00;99446.25;5046227;28;20051;-43
2022/12/28 03:52:01;;;;;;;10.20;2.80;;;;;;;5.51;100.00;99433.66;5049814;28;20045;-43
2022/12/28 04:24:56;;;;;;;10.93;2.90;;;;;;;4.97;100.00;99343.66;5051215;28;20040;-42
2022/12/28 04:27:23;;;;;;;12.63;3.13;;;;;;;4.91;100.00;99332.13;5051376;28;20041;-43
2022/12/28 04:33:40;;;;;;;13.30;3.60;;;;;;;4.83;100.00;99322.06;5046349;28;20372;-42
2022/12/28 04:36:16;;;;;;;21.13;4.05;;;;;;;4.76;100.00;99306.19;5049011;28;20107;-42
2022/12/28 04:38:43;;;;;;;18.80;3.85;;;;;;;4.75;100.00;99295.56;5053031;28;20065;-42
2022/12/28 04:52:41;;;;;;;15.50;3.65;;;;;;;4.61;100.00;99252.03;5046320;28;20041;-44
2022/12/28 04:58:32;;;;;;;13.88;3.20;;;;;;;4.65;100.00;99228.28;5054785;28;20037;-43
2022/12/28 05:01:03;;;;;;;19.05;3.13;;;;;;;4.70;100.00;99228.06;5053169;28;20048;-43
2022/12/28 05:03:30;;;;;;;9.88;4.25;;;;;;;4.74;100.00;99207.03;5030437;28;20076;-43
2022/12/28 05:06:06;;;;;;;18.05;3.65;;;;;;;4.79;100.00;99204.03;5033269;28;20061;-42
2022/12/28 05:08:37;;;;;;;13.95;3.13;;;;;;;4.84;100.00;99201.06;5029036;28;20051;-43
2022/12/28 05:11:10;;;;;;;7.70;2.45;;;;;;;4.89;100.00;99183.59;5033448;28;20049;-42
2022/12/28 05:13:37;;;;;;;17.45;3.30;;;;;;;4.94;100.00;99194.31;5032751;28;20045;-43
2022/12/28 05:16:06;;;;;;;21.05;3.55;;;;;;;4.98;100.00;99195.22;5034673;28;20435;-43
2022/12/28 05:18:34;;;;;;;14.07;3.55;;;;;;;5.03;100.00;99189.50;5033925;28;20588;-43
2022/12/28 05:21:05;;;;;;;12.68;2.33;;;;;;;5.06;100.00;99180.56;5028463;28;20041;-43
2022/12/28 05:23:34;;;;;;;13.95;3.10;;;;;;;5.10;100.00;99175.22;5033792;28;20583;-42
2022/12/28 05:29:41;;;;;;;17.35;2.70;;;;;;;5.14;100.00;99157.69;5024616;28;20033;-43
2022/12/28 05:43:57;;;;;;;17.17;2.88;;;;;;;5.30;100.00;99109.16;5033239;28;20067;-44
2022/12/28 05:53:43;;;;;;;12.85;5.28;;;;;;;5.47;100.00;99075.94;5032112;28;20043;-42
2022/12/28 05:56:13;;;;;;;13.57;3.00;;;;;;;5.49;100.00;99068.16;5028980;28;20048;-42
2022/12/28 05:58:41;;;;;;;22.88;2.78;;;;;;;5.51;100.00;99054.84;5032701;28;20448;-42
2022/12/28 06:04:58;;;;;;;14.32;3.40;;;;;;;5.50;100.00;99025.84;5039341;28;20064;-43
2022/12/28 06:21:18;;;;;;;19.85;5.05;;;;;;;5.41;100.00;98978.53;5049249;28;20379;-43
2022/12/28 06:24:13;;;;;;;12.02;3.30;;;;;;;5.39;100.00;98958.09;5052376;28;20052;-42
2022/12/28 06:30:36;;;;;;;10.35;2.22;;;;;;;5.36;100.00;98936.84;5043661;28;20087;-43
2022/12/28 06:33:14;;;;;;;17.67;3.13;;;;;;;5.35;100.00;98911.34;5044455;28;20052;-42
2022/12/28 06:35:40;;;;;;;23.27;6.47;;;;;;;5.36;100.00;98910.22;5033938;28;20447;-42
2022/12/28 06:38:07;;;;;;;17.05;2.88;;;;;;;5.37;100.00;98895.34;5052441;28;20048;-42
2022/12/28 06:40:34;;;;;;;18.27;3.40;;;;;;;5.37;100.00;98892.59;5051668;28;20052;-43
2022/12/28 06:43:20;;;;;;;23.20;4.20;;;;;;;5.37;100.00;98867.91;5051911;28;20037;-42
2022/12/28 06:45:56;;;;;;;14.25;2.67;;;;;;;5.38;100.00;98855.75;5051728;28;20095;-42
2022/12/28 06:52:07;;;;;;;22.15;3.72;;;;;;;5.38;100.00;98836.56;5043215;28;20447;-43
2022/12/28 07:02:24;;;;;;;24.40;4.03;;;;;;;5.37;100.00;98795.78;5049850;28;20021;-42
2022/12/28 07:04:51;;;;;;;14.18;2.80;;;;;;;5.37;100.00;98785.59;5050078;28;20076;-42
2022/12/28 07:08:01;;;;;;;16.55;3.58;;;;;;;5.38;100.00;98770.69;5052653;28;20041;-46
2022/12/28 07:14:58;;;;;;;22.40;3.55;;;;;;;5.42;100.00;98744.16;5047356;28;20086;-42
2022/12/28 07:21:29;;;;;;;15.48;3.67;;;;;;;5.48;100.00;98709.75;5052509;28;20040;-42
2022/12/28 07:23:58;;;;;;;16.58;2.95;;;;;;;5.49;100.00;98694.88;5046499;28;20075;-42
2022/12/28 07:26:48;;;;;;;24.42;4.38;;;;;;;5.51;100.00;98684.34;5042649;28;20053;-42
2022/12/28 07:29:17;;;;;;;18.95;4.28;;;;;;;5.54;100.00;98669.09;5052079;28;20043;-46
2022/12/28 07:31:45;;;;;;;21.95;4.32;;;;;;;5.56;100.00;98664.03;5051981;28;20075;-42
2022/12/28 07:34:49;;;;;;;17.63;3.40;;;;;;;5.59;100.00;98654.31;5050399;28;20037;-42
2022/12/28 07:37:16;;;;;;;25.95;4.13;;;;;;;5.61;100.00;98641.81;5042798;28;20045;-42
2022/12/28 07:39:58;;;;;;;15.93;3.65;;;;;;;5.65;100.00;98625.38;5049634;28;20044;-42
2022/12/28 07:43:19;;;;;;;18.40;3.90;;;;;;;5.68;100.00;98621.91;5046538;28;20141;-43
2022/12/28 07:45:46;;;;;;;18.40;4.20;;;;;;;5.70;100.00;98606.66;5043570;28;20490;-42
2022/12/28 07:48:13;;;;;;;18.42;3.92;;;;;;;5.74;100.00;98590.25;5048458;28;20040;-42
2022/12/28 07:54:14;;;;;;;20.88;4.80;;;;;;;5.79;100.00;98581.72;5047212;28;20513;-43
2022/12/28 07:56:41;;;;;;;16.10;4.40;;;;;;;5.82;100.00;98575.50;5047714;28;20391;-43
2022/12/28 08:03:14;;;;;;;39.70;5.97;;;;;;;5.86;100.00;98549.72;5047986;28;20037;-43
2022/12/28 08:05:41;;;;;;;11.73;2.97;;;;;;;5.90;100.00;98544.28;5051792;28;20076;-42
2022/12/28 08:15:38;;;;;;;17.02;3.45;;;;;;;5.95;100.00;98502.78;5045487;28;20032;-42
2022/12/28 08:25:22;;;;;;;13.40;3.40;;;;;;;6.01;100.00;98446.38;5042223;28;20040;-43
2022/12/28 08:27:49;;;;;;;6.43;3.30;;;;;;;6.03;100.00;98439.34;5046921;28;20044;-43
2022/12/28 08:30:28;;;;;;;17.88;3.70;;;;;;;6.05;100.00;98439.78;5052209;28;20136;-42
2022/12/28 08:33:06;;;;;;;14.90;3.83;;;;;;;6.05;100.00;98420.53;5048448;28;20144;-42
2022/12/28 08:35:33;;;;;;;12.82;3.95;;;;;;;6.07;100.00;98414.66;5049583;28;20056;-42
2022/12/28 08:38:00;;;;;;;22.92;5.68;;;;;;;6.10;100.00;98405.69;5052281;28;20512;-43
2022/12/28 08:40:28;;;;;;;21.65;6.22;;;;;;;6.11;100.00;98388.06;5049401;28;20375;-42
2022/12/28 08:43:00;;;;;;;22.48;7.43;;;;;;;6.12;100.00;98375.88;5051876;28;20041;-43
2022/12/28 08:45:28;;;;;;;26.02;8.05;;;;;;;6.12;100.00;98349.22;5037777;28;20045;-43
2022/12/28 08:47:55;;;;;;;29.35;8.20;;;;;;;6.14;100.00;98359.84;5049495;28;20132;-43
2022/12/28 08:50:21;;;;;;;24.40;8.80;;;;;;;6.14;100.00;98359.84;5050850;28;20056;-43
2022/12/28 08:56:30;;;;;;;33.88;9.52;;;;;;;6.17;100.00;98333.56;5049430;28;20037;-43
2022/12/28 08:59:04;;;;;;;32.08;11.05;;;;;;;6.18;100.00;98319.44;5049411;28;20430;-43
2022/12/28 09:01:33;;;;;;;46.40;9.68;;;;;;;6.18;100.00;98296.69;5047290;28;20045;-44
2022/12/28 09:08:18;;;;;;;40.25;9.52;;;;;;;6.21;100.00;98285.75;5010266;28;20383;-44
2022/12/28 09:10:44;;;;;;;43.30;10.63;;;;;;;6.22;100.00;98281.84;5026676;28;20513;-43
2022/12/28 09:13:32;;;;;;;42.33;9.90;;;;;;;6.23;100.00;98271.63;5025593;28;20388;-43
2022/12/28 09:16:01;;;;;;;42.60;9.40;;;;;;;6.24;100.00;98262.22;5026933;28;20046;-43
2022/12/28 09:18:29;;;;;;;34.00;9.98;;;;;;;6.26;100.00;98268.13;5030432;28;20065;-43
2022/12/28 09:21:31;;;;;;;38.05;9.70;;;;;;;6.28;100.00;98263.03;5029658;28;20042;-43
2022/12/28 09:24:11;;;;;;;83.22;14.07;;;;;;;6.29;100.00;98259.13;5034006;28;20045;-43
2022/12/28 09:26:37;;;;;;;21.50;7.10;;;;;;;6.31;100.00;98256.78;5015698;28;20505;-44
2022/12/28 09:29:07;;;;;;;22.27;6.25;;;;;;;6.31;100.00;98234.81;5032724;28;20399;-42
2022/12/28 09:31:35;;;;;;;37.50;8.15;;;;;;;6.33;100.00;98238.75;5034700;28;20499;-42
2022/12/28 09:34:54;;;;;;;21.38;6.20;;;;;;;6.35;100.00;98225.44;5035211;28;20042;-42
2022/12/28 09:37:21;;;;;;;21.15;5.85;;;;;;;6.38;100.00;98213.66;5032892;28;20069;-43
2022/12/28 09:39:48;;;;;;;15.60;3.85;;;;;;;6.40;100.00;98205.84;5032938;28;20041;-42
2022/12/28 09:42:24;;;;;;;15.48;4.30;;;;;;;6.46;100.00;98198.81;5034219;28;20045;-42
2022/12/28 09:44:58;;;;;;;38.92;7.05;;;;;;;6.52;100.00;98189.06;5015968;28;20458;-43
2022/12/28 09:47:37;;;;;;;16.33;5.07;;;;;;;6.58;100.00;98171.06;5033689;28;20052;-42
2022/12/28 09:50:17;;;;;;;14.90;4.80;;;;;;;6.62;100.00;98169.13;5033656;28;20046;-43
2022/12/28 09:53:02;;;;;;;18.25;8.27;;;;;;;6.67;100.00;98160.50;5030838;28;20054;-42
2022/12/28 09:55:30;;;;;;;21.20;10.68;;;;;;;6.71;100.00;98152.28;5017562;28;20140;-43
2022/12/28 09:58:16;;;;;;;21.30;8.13;;;;;;;6.76;100.00;98140.94;5024384;28;20037;-42
2022/12/28 10:00:46;;;;;;;17.67;8.82;;;;;;;6.83;100.00;98137.47;5022181;28;20129;-43
2022/12/28 10:03:27;;;;;;;12.80;5.82;;;;;;;6.90;100.00;98132.78;5043119;28;20045;-42
2022/12/28 10:05:56;;;;;;;7.47;3.35;;;;;;;6.97;100.00;98118.25;5037604;28;20068;-42
2022/12/28 10:08:25;;;;;;;2.83;2.20;;;;;;;7.02;100.00;98113.19;5045695;28;20033;-45
2022/12/28 10:11:17;;;;;;;7.28;3.00;;;;;;;7.08;100.00;98094.34;5042151;28;20048;-44
2022/12/28 10:17:35;;;;;;;3.33;2.05;;;;;;;7.16;100.00;98082.22;5051286;28;20068;-42
2022/12/28 10:20:02;;;;;;;5.15;2.80;;;;;;;7.19;100.00;98071.22;5049004;28;20057;-42
2022/12/28 10:27:21;;;;;;;6.93;3.15;;;;;;;7.23;100.00;98061.00;5044841;28;20049;-43
2022/12/28 10:30:42;;;;;;;7.30;3.72;;;;;;;7.26;100.00;98042.94;5036169;28;20049;-42
2022/12/28 10:41:14;;;;;;;4.85;3.10;;;;;;;7.30;100.00;98013.47;5047890;28;20076;-42
2022/12/28 10:51:58;;;;;;;4.65;2.92;;;;;;;7.45;100.00;97997.75;5039782;28;20044;-45
2022/12/28 10:54:25;;;;;;;6.72;3.42;;;;;;;7.47;100.00;98001.69;5051823;28;20079;-45
2022/12/28 10:57:17;;;;;;;7.88;3.25;;;;;;;7.52;100.00;97970.25;5033998;28;20473;-42
2022/12/28 10:59:49;;;;;;;4.32;3.22;;;;;;;7.58;100.00;97965.91;5046041;28;20045;-43
2022/12/28 11:06:18;;;;;;;7.65;4.57;;;;;;;7.72;100.00;97949.41;5044520;28;20044;-43
2022/12/28 11:09:11;;;;;;;9.23;4.00;;;;;;;7.83;100.00;97939.19;5047931;28;20051;-43
2022/12/28 11:11:39;;;;;;;8.90;4.22;;;;;;;7.90;100.00;97926.19;5039498;28;20099;-42
2022/12/28 11:14:29;;;;;;;8.90;4.88;;;;;;;7.99;100.00;97920.25;5050923;28;20053;-43
2022/12/28 11:16:56;;;;;;;10.75;4.13;;;;;;;8.04;100.00;97908.06;5048089;28;20463;-44
2022/12/28 11:19:24;;;;;;;8.07;4.10;;;;;;;8.08;100.00;97917.06;5050487;28;20083;-43
2022/12/28 11:22:32;;;;;;;9.32;4.90;;;;;;;8.14;100.00;97904.47;5048228;28;20059;-43
2022/12/28 11:25:01;;;;;;;9.98;5.30;;;;;;;8.18;100.00;97906.03;5052131;28;20064;-44
2022/12/28 11:27:27;;;;;;;10.68;6.03;;;;;;;8.20;100.00;97895.41;5052106;28;20479;-43
2022/12/28 11:30:28;;;;;;;10.40;5.43;;;;;;;8.24;100.00;97892.63;5054157;28;20147;-43
2022/12/28 11:33:47;;;;;;;9.95;4.25;;;;;;;8.26;100.00;97884.78;5049480;28;20041;-43
2022/12/28 11:36:27;;;;;;;5.25;2.88;;;;;;;8.33;100.00;97880.03;5040594;28;20071;-43
2022/12/28 11:38:55;;;;;;;4.03;1.52;;;;;;;8.40;100.00;97879.22;5047355;28;20110;-44
2022/12/28 11:41:29;;;;;;;1.70;1.30;;;;;;;8.45;100.00;97873.28;5050637;28;20041;-45
2022/12/28 11:51:32;;;;;;;0.20;0.20;;;;;;;8.82;100.00;97853.38;5044648;28;20024;-43
2022/12/28 11:54:59;;;;;;;0.65;0.43;;;;;;;8.92;100.00;97850.56;5052384;28;20052;-44
2022/12/28 11:57:53;;;;;;;0.55;0.30;;;;;;;9.00;100.00;97856.84;5033821;28;20056;-44
2022/12/28 12:00:48;;;;;;;1.88;0.63;;;;;;;9.05;100.00;97845.38;5039785;28;20032;-44
2022/12/28 12:03:15;;;;;;;0.22;0.20;;;;;;;9.13;100.00;97844.88;5050450;28;20044;-44
2022/12/28 12:06:02;;;;;;;0.32;0.22;;;;;;;9.21;100.00;97842.88;5050923;28;20119;-48
2022/12/28 12:08:32;;;;;;;0.85;0.25;;;;;;;9.29;100.00;97832.56;5049919;28;20033;-44
2022/12/28 12:11:25;;;;;;;0.50;0.30;;;;;;;9.35;100.00;97833.69;5050994;28;20041;-44
2022/12/28 12:13:53;;;;;;;1.90;0.50;;;;;;;9.39;100.00;97835.22;5050766;28;20048;-44
2022/12/28 12:16:32;;;;;;;1.40;0.35;;;;;;;9.44;100.00;97831.25;5050673;28;20044;-44
2022/12/28 12:19:00;;;;;;;0.85;0.30;;;;;;;9.48;100.00;97826.47;5048870;28;20048;-46
2022/12/28 12:21:26;;;;;;;1.73;0.32;;;;;;;9.51;100.00;97822.88;5050020;28;20053;-45
2022/12/28 12:28:25;;;;;;;1.65;0.20;;;;;;;9.57;100.00;97821.25;5050530;28;20652;-43
2022/12/28 12:31:29;;;;;;;1.02;0.35;;;;;;;9.62;100.00;97818.03;5025880;28;20147;-44
2022/12/28 12:34:04;;;;;;;3.83;0.40;;;;;;;9.63;100.00;97814.09;5052582;28;20049;-46
2022/12/28 12:44:49;;;;;;;4.00;0.65;;;;;;;9.60;100.00;97831.50;5051757;28;20029;-44
2022/12/28 13:07:04;;;;;;;7.18;1.88;;;;;;;9.60;100.00;97812.16;5050310;28;20506;-43
2022/12/28 13:10:15;;;;;;;7.35;2.30;;;;;;;9.55;100.00;97810.63;5052831;28;20071;-45
2022/12/28 13:21:36;;;;;;;16.17;3.85;;;;;;;9.47;100.00;97802.81;5046556;28;20032;-43
2022/12/28 13:24:16;;;;;;;15.43;2.40;;;;;;;9.46;100.00;97795.72;5032806;28;20045;-42
2022/12/28 13:26:43;;;;;;;15.90;4.43;;;;;;;9.47;100.00;97781.50;5053040;28;20049;-38
2022/12/28 13:29:38;;;;;;;9.80;2.53;;;;;;;9.46;100.00;97779.16;5052384;28;20387;-43
2022/12/28 13:32:52;;;;;;;20.10;3.72;;;;;;;9.48;100.00;97779.50;5037186;28;20049;-42
2022/12/28 13:39:11;;;;;;;14.07;3.72;;;;;;;9.39;100.00;97777.25;5052375;28;20045;-43
2022/12/28 13:42:13;;;;;;;11.10;2.70;;;;;;;9.35;100.00;97784.78;5052309;28;20041;-44
2022/12/28 13:48:30;;;;;;;9.40;2.17;;;;;;;9.20;100.00;97758.50;5051220;28;20427;-38
2022/12/28 13:50:57;;;;;;;11.43;2.45;;;;;;;9.14;100.00;97760.91;5050988;28;20520;-41
2022/12/28 13:53:49;;;;;;;14.15;2.38;;;;;;;9.10;100.00;97740.84;5053116;28;20041;-41
2022/12/28 14:00:46;;;;;;;10.88;2.53;;;;;;;9.02;100.00;97763.38;5042918;28;20032;-40
2022/12/28 14:03:37;;;;;;;24.05;3.92;;;;;;;8.95;100.00;97744.13;5047187;28;20529;-40
2022/12/28 14:06:11;;;;;;;16.88;3.45;;;;;;;8.88;100.00;97739.47;5052324;28;20498;-41
2022/12/28 14:08:39;;;;;;;21.65;3.50;;;;;;;8.85;100.00;97743.03;5053134;28;20402;-40
2022/12/28 14:19:47;;;;;;;14.52;2.35;;;;;;;8.71;100.00;97731.34;5048485;28;20156;-40
2022/12/28 14:23:26;;;;;;;12.18;2.55;;;;;;;8.69;100.00;97726.22;5050441;28;20048;-41
2022/12/28 14:26:23;;;;;;;14.82;2.25;;;;;;;8.69;100.00;97709.66;5053744;28;20048;-40
2022/12/28 14:40:45;;;;;;;9.40;2.38;;;;;;;8.69;100.00;97682.09;5054804;28;20144;-40
2022/12/28 14:43:21;;;;;;;14.13;2.20;;;;;;;8.72;100.00;97686.00;5052095;28;20048;-40
2022/12/28 14:53:19;;;;;;;3.25;1.17;;;;;;;8.80;100.00;97680.03;5049700;28;20797;-41
2022/12/28 14:56:18;;;;;;;8.82;2.08;;;;;;;8.81;100.00;97687.13;5050644;28;20064;-40
2022/12/28 15:15:25;;;;;;;11.68;2.70;;;;;;;8.77;100.00;97663.50;5044916;28;20483;-40
2022/12/28 15:17:52;;;;;;;13.80;2.47;;;;;;;8.75;100.00;97663.91;5048467;28;20140;-40
2022/12/28 15:24:30;;;;;;;8.55;2.47;;;;;;;8.73;100.00;97660.78;5051791;28;20036;-40
2022/12/28 15:27:20;;;;;;;11.55;2.15;;;;;;;8.73;100.00;97676.53;5052093;28;20147;-40
2022/12/28 15:30:10;;;;;;;10.38;1.50;;;;;;;8.74;100.00;97678.88;5051650;28;20044;-41
2022/12/28 15:32:47;;;;;;;18.02;2.83;;;;;;;8.73;100.00;97671.81;5040222;28;20053;-40
2022/12/28 15:38:55;;;;;;;10.25;2.33;;;;;;;8.70;100.00;97655.28;5051066;28;20049;-40
2022/12/28 15:44:52;;;;;;;13.40;2.17;;;;;;;8.68;100.00;97669.50;5042040;28;20053;-40
2022/12/28 15:47:20;;;;;;;10.88;2.30;;;;;;;8.68;100.00;97657.69;5050757;28;20382;-40
2022/12/28 15:53:58;;;;;;;7.22;2.08;;;;;;;8.66;100.00;97666.34;5041079;28;20068;-41
2022/12/28 15:56:34;;;;;;;8.73;2.38;;;;;;;8.66;100.00;97647.03;5046868;28;20072;-40
2022/12/28 15:59:03;;;;;;;10.70;2.38;;;;;;;8.69;100.00;97662.00;5050330;28;20064;-41
2022/12/28 16:01:30;;;;;;;7.85;1.80;;;;;;;8.70;100.00;97650.56;5049416;28;20123;-40
2022/12/28 16:04:00;;;;;;;4.32;1.92;;;;;;;8.73;100.00;97652.50;5053436;28;20414;-40
2022/12/28 16:07:18;;;;;;;11.90;2.92;;;;;;;8.75;100.00;97647.38;5048633;28;20041;-40
2022/12/28 16:09:45;;;;;;;4.32;1.52;;;;;;;8.74;100.00;97639.47;5049253;28;20049;-40
2022/12/28 16:28:08;;;;;;;8.75;2.28;;;;;;;8.70;100.00;97649.78;5039461;28;19970;-41
2022/12/28 16:30:47;;;;;;;5.80;1.30;;;;;;;8.68;100.00;97630.09;5049336;28;20072;-41
2022/12/28 16:41:26;;;;;;;6.82;2.40;;;;;;;8.58;100.00;97627.03;5051779;28;20071;-41
2022/12/28 16:51:32;;;;;;;17.23;2.70;;;;;;;8.53;100.00;97619.19;5056125;28;20044;-43
2022/12/28 16:58:10;;;;;;;7.82;2.10;;;;;;;8.52;100.00;97617.63;5041631;28;20036;-41
2022/12/28 17:08:25;;;;;;;7.53;2.35;;;;;;;8.51;100.00;97615.28;5055673;28;20036;-41
2022/12/28 17:15:45;;;;;;;7.53;2.05;;;;;;;8.51;100.00;97609.75;5047028;28;20045;-42
2022/12/28 17:18:12;;;;;;;5.32;2.22;;;;;;;8.52;100.00;97601.06;5053398;28;20056;-41
2022/12/28 17:20:39;;;;;;;4.00;1.90;;;;;;;8.51;100.00;97599.53;5055291;28;20045;-41
2022/12/28 17:30:47;;;;;;;9.35;2.05;;;;;;;8.55;100.00;97603.00;5049622;28;20041;-41
2022/12/28 17:33:59;;;;;;;6.38;1.95;;;;;;;8.54;100.00;97598.72;5054338;28;20068;-41
2022/12/28 17:36:26;;;;;;;4.13;1.20;;;;;;;8.54;100.00;97601.47;5050096;28;20048;-41
2022/12/28 17:43:17;;;;;;;5.35;1.42;;;;;;;8.54;100.00;97589.66;5043652;28;20131;-41
2022/12/28 17:45:56;;;;;;;2.23;1.20;;;;;;;8.53;100.00;97585.31;5049037;28;20048;-43
2022/12/28 17:48:53;;;;;;;9.18;4.10;;;;;;;8.53;100.00;97585.31;5050855;28;20049;-41
2022/12/28 17:56:04;;;;;;;10.13;3.40;;;;;;;8.51;100.00;97543.59;5050870;28;20109;-41
2022/12/28 17:58:31;;;;;;;11.65;2.80;;;;;;;8.51;100.00;97557.38;5047969;28;20033;-41
2022/12/28 18:04:50;;;;;;;8.75;2.78;;;;;;;8.51;100.00;97549.09;5049095;28;20041;-42
2022/12/28 18:07:54;;;;;;;6.93;2.72;;;;;;;8.49;100.00;97544.00;5047540;28;20494;-41
2022/12/28 18:10:21;;;;;;;8.90;1.83;;;;;;;8.47;100.00;97526.31;5046989;28;20041;-42
2022/12/28 18:16:39;;;;;;;15.02;3.35;;;;;;;8.44;100.00;97527.91;5043646;28;20037;-41
2022/12/28 18:19:34;;;;;;;10.52;2.40;;;;;;;8.43;100.00;97511.78;5047941;28;20041;-40
2022/12/28 18:22:01;;;;;;;9.30;2.28;;;;;;;8.44;100.00;97527.13;5046093;28;20064;-44
2022/12/28 18:24:28;;;;;;;9.18;2.53;;;;;;;8.43;100.00;97529.09;5052143;28;20426;-41
2022/12/28 18:30:38;;;;;;;11.82;3.00;;;;;;;8.46;100.00;97517.25;5049130;28;20044;-41
2022/12/28 18:33:22;;;;;;;10.10;2.33;;;;;;;8.47;100.00;97520.81;5048743;28;20045;-41
2022/12/28 18:36:11;;;;;;;11.00;2.67;;;;;;;8.48;100.00;97528.66;5045801;28;20498;-41
2022/12/28 18:39:01;;;;;;;15.70;2.72;;;;;;;8.48;100.00;97531.41;5047363;28;20049;-44
2022/12/28 18:41:47;;;;;;;11.43;2.80;;;;;;;8.48;100.00;97516.84;5043776;28;20055;-41
2022/12/28 18:44:14;;;;;;;5.80;1.55;;;;;;;8.45;100.00;97517.66;5047345;28;20092;-41
2022/12/28 18:47:01;;;;;;;10.15;3.05;;;;;;;8.41;100.00;97514.16;5048458;28;20045;-41
2022/12/28 18:50:14;;;;;;;11.95;2.78;;;;;;;8.36;100.00;97514.59;5044200;28;20045;-41
2022/12/28 18:53:03;;;;;;;9.77;1.77;;;;;;;8.32;100.00;97508.34;5043586;28;20056;-41
2022/12/28 18:56:06;;;;;;;10.85;2.03;;;;;;;8.31;100.00;97528.84;5049624;28;20041;-41
2022/12/28 18:58:55;;;;;;;7.90;1.67;;;;;;;8.28;100.00;97529.66;5049304;28;20533;-41
2022/12/28 19:09:17;;;;;;;8.38;2.10;;;;;;;8.23;100.00;97539.13;5047251;28;20041;-41
2022/12/28 19:15:59;;;;;;;10.75;2.00;;;;;;;8.17;100.00;97562.00;5026977;28;20052;-41
2022/12/28 19:18:26;;;;;;;8.30;2.45;;;;;;;8.14;100.00;97555.31;5028734;28;20041;-42
2022/12/28 19:20:58;;;;;;;14.27;3.05;;;;;;;8.12;100.00;97562.44;5023075;28;20041;-44
2022/12/28 19:26:50;;;;;;;6.20;2.00;;;;;;;8.13;100.00;97572.28;5029481;28;20083;-43
2022/12/28 19:29:41;;;;;;;7.97;1.98;;;;;;;8.12;100.00;97598.25;5024369;28;20046;-42
2022/12/28 19:32:08;;;;;;;5.05;1.40;;;;;;;8.09;100.00;97621.88;5028275;28;20154;-43
2022/12/28 19:34:45;;;;;;;8.07;2.53;;;;;;;8.06;100.00;97646.69;5028006;28;20068;-43
2022/12/28 19:37:12;;;;;;;7.60;2.45;;;;;;;7.99;100.00;97648.28;5026721;28;20048;-42
2022/12/28 19:39:38;;;;;;;6.60;2.00;;;;;;;7.90;100.00;97650.72;5028806;28;20103;-42